• Join FlightAware (Why Join?)
  • Login
  • US Flag 
11:25AM EDT


 

Airport Tracker/Info


-or-


 

Live Flight TrackerFlight Track Log ✈ KBA204 ✈ 30-Jun-2013 ✈ CYZF - CYEV

Flight Track Log - Related Links

Times and Time Zones

All times are in EDT time to prevent confusion due to time zone crossing. See the KBA204 flight status page for this flight to view local times or setup timezone preferences in your user account.

Time Position Orientation Groundspeed Altitude Reporting Facility
EDT Latitude Longitude Course Direction KTS MPH feet Rate Location/Type
11:45PM 62.4667 -114.4833 293° West 30 35 700  Level Edmonton Center
11:46PM 62.4833 -114.5667 293° West 110 127 2,200 1,500 Climbing Edmonton Center
11:47PM 62.5000 -114.6500 293° West 150 173 3,800 1,620 Climbing Edmonton Center
11:48PM 62.5333 -114.7000 325° Northwest 150 173 5,500 1,680 Climbing Edmonton Center
11:49PM 62.5500 -114.7833 293° West 150 173 7,200 1,500 Climbing Edmonton Center
11:50PM 62.5833 -114.8167 335° Northwest 150 173 8,600 1,440 Climbing Edmonton Center
11:51PM 62.6167 -114.9000 311° West 150 173 10,100 1,260 Climbing Edmonton Center
11:52PM 62.6500 -114.9833 311° West 160 184 11,200 1,080 Climbing Edmonton Center
11:53PM 62.6667 -115.0333 306° West 180 207 12,300 1,020 Climbing Edmonton Center
11:54PM 62.7167 -115.1333 318° Northwest 180 207 13,300 900 Climbing Edmonton Center
11:55PM 62.7500 -115.2167 311° West 180 207 14,100 840 Climbing Edmonton Center
11:56PM 62.7833 -115.3000 311° West 190 219 15,000 780 Climbing Edmonton Center
11:57PM 62.8167 -115.3833 311° West 180 207 15,700 660 Climbing Edmonton Center
11:58PM 62.8667 -115.4500 329° Northwest 190 219 16,400 780 Climbing Edmonton Center
11:59PM 62.9000 -115.5333 311° West 180 207 17,300 900 Climbing Edmonton Center
12:00AM 62.9167 -115.6167 294° West 180 207 18,300 900 Climbing Edmonton Center
12:01AM 62.9667 -115.7000 323° Northwest 170 196 19,200 900 Climbing Edmonton Center
12:02AM 63.0000 -115.7500 326° Northwest 170 196 20,100 840 Climbing Edmonton Center
12:03AM 63.0333 -115.8333 311° West 160 184 20,900 780 Climbing Edmonton Center
12:04AM 63.0500 -115.8833 306° West 160 184 21,700 780 Climbing Edmonton Center
12:05AM 63.0833 -115.9833 306° West 160 184 22,500 600 Climbing Edmonton Center
12:06AM 63.1333 -116.0667 323° Northwest 160 184 23,000 480 Climbing Edmonton Center
12:07AM 63.1667 -116.1167 326° Northwest 160 184 23,500 420 Climbing Edmonton Center
12:08AM 63.1833 -116.2000 294° West 170 196 23,900 300 Climbing Edmonton Center
12:09AM 63.2167 -116.2833 312° West 180 207 24,100  Climbing Edmonton Center
12:10AM 63.2500 -116.3833 307° West 190 219 24,000 -60 Descending Edmonton Center
12:11AM 63.2833 -116.4667 312° West 210 242 24,000  Level Edmonton Center
12:12AM 63.3333 -116.5667 318° Northwest 210 242 24,100  Climbing Edmonton Center
12:13AM 63.3667 -116.6667 307° West 210 242 24,000 -120 Descending Edmonton Center
12:14AM 63.4167 -116.7500 323° Northwest 210 242 23,900  Descending Edmonton Center
12:15AM 63.4667 -116.8500 318° Northwest 210 242 24,000  Climbing Edmonton Center
12:16AM 63.5000 -116.9833 299° West 210 242 24,000  Level Edmonton Center
12:17AM 63.5500 -117.0833 318° Northwest 210 242 24,000  Level Edmonton Center
12:18AM 63.5833 -117.1667 312° West 210 242 24,000  Level Edmonton Center
12:19AM 63.6167 -117.2667 307° West 210 242 24,000  Level Edmonton Center
12:20AM 63.6667 -117.3667 318° Northwest 210 242 24,000  Level Edmonton Center
12:21AM 63.7000 -117.4500 312° West 220 253 24,000  Level Edmonton Center
12:22AM 63.7500 -117.5500 319° Northwest 220 253 24,000  Level Edmonton Center
12:23AM 63.7833 -117.6500 307° West 220 253 24,000  Level Edmonton Center
12:24AM 63.8333 -117.7500 319° Northwest 210 242 24,000  Level Edmonton Center
12:25AM 63.8500 -117.8833 286° West 210 242 24,000  Level Edmonton Center
12:26AM 63.9000 -117.9667 324° Northwest 210 242 24,000  Level Edmonton Center
12:27AM 63.9333 -118.0667 307° West 210 242 24,000  Level Edmonton Center
12:28AM 63.9833 -118.1667 319° Northwest 210 242 24,000  Level Edmonton Center
12:29AM 64.0333 -118.2667 319° Northwest 210 242 24,000  Level Edmonton Center
12:30AM 64.0667 -118.3667 307° West 210 242 24,000  Level Edmonton Center
12:31AM 64.1000 -118.4667 307° West 210 242 24,000  Level Edmonton Center
12:32AM 64.1333 -118.6000 300° West 210 242 24,000  Level Edmonton Center
12:33AM 64.1833 -118.7000 319° Northwest 210 242 24,000  Level Edmonton Center
12:34AM 64.2167 -118.8000 307° West 220 253 24,000  Level Edmonton Center
12:35AM 64.2667 -118.9000 319° Northwest 210 242 24,000  Level Edmonton Center
12:37AM 64.3167 -119.0500 308° West 220 253 24,000  Level Edmonton Center
12:38AM 64.3667 -119.1500 319° Northwest 210 242 24,000  Level Edmonton Center
12:39AM 64.3833 -119.2500 291° West 210 242 24,000  Level Edmonton Center
12:40AM 64.4333 -119.3500 319° Northwest 210 242 24,000  Level Edmonton Center
12:41AM 64.4667 -119.4500 308° West 210 242 24,000  Level Edmonton Center
12:42AM 64.5167 -119.5500 319° Northwest 210 242 24,000  Level Edmonton Center
12:43AM 64.5500 -119.6500 308° West 210 242 24,000  Level Edmonton Center
12:44AM 64.5833 -119.8000 297° West 210 242 24,000  Level Edmonton Center
12:45AM 64.6333 -119.9000 319° Northwest 220 253 24,000  Level Edmonton Center
12:46AM 64.6500 -120.0000 291° West 220 253 24,000  Level Edmonton Center
12:48AM 64.7284 -120.2174 310° West  Level Estimated
12:55AM 65.0031 -120.9935 310° West  Level FlightAware Approximate
12:56AM 65.0420 -121.1057 309° West  Level FlightAware Approximate
12:57AM 65.0809 -121.2182 309° West  Level FlightAware Approximate
12:58AM 65.1196 -121.3310 309° West  Level FlightAware Approximate
12:59AM 65.1583 -121.4442 309° West  Level FlightAware Approximate
01:00AM 65.1969 -121.5576 309° West  Level FlightAware Approximate
01:01AM 65.2353 -121.6715 309° West  Level FlightAware Approximate
01:02AM 65.2737 -121.7856 309° West  Level FlightAware Approximate
01:03AM 65.3121 -121.9001 309° West  Level FlightAware Approximate
01:04AM 65.3503 -122.0149 309° West  Level FlightAware Approximate
01:05AM 65.3884 -122.1301 309° West  Level FlightAware Approximate
01:06AM 65.4265 -122.2456 308° West  Level FlightAware Approximate
01:07AM 65.4644 -122.3614 308° West  Level FlightAware Approximate
01:08AM 65.5023 -122.4775 308° West  Level FlightAware Approximate
01:09AM 65.5401 -122.5940 308° West  Level FlightAware Approximate
01:10AM 65.5778 -122.7109 308° West  Level FlightAware Approximate
01:11AM 65.6154 -122.8280 308° West  Level FlightAware Approximate
01:12AM 65.6529 -122.9455 308° West  Level FlightAware Approximate
01:13AM 65.6904 -123.0634 308° West  Level FlightAware Approximate
01:14AM 65.7277 -123.1816 308° West  Level FlightAware Approximate
01:15AM 65.7650 -123.3001 307° West  Level FlightAware Approximate
01:16AM 65.8021 -123.4190 307° West  Level FlightAware Approximate
01:17AM 65.8392 -123.5382 307° West  Level FlightAware Approximate
01:18AM 65.8761 -123.6578 307° West  Level FlightAware Approximate
01:19AM 65.9130 -123.7777 307° West  Level FlightAware Approximate
01:20AM 65.9498 -123.8979 307° West  Level FlightAware Approximate
01:21AM 65.9865 -124.0185 307° West  Level FlightAware Approximate
01:22AM 66.0231 -124.1395 307° West  Level FlightAware Approximate
01:23AM 66.0596 -124.2607 307° West  Level FlightAware Approximate
01:24AM 66.0960 -124.3824 306° West  Level FlightAware Approximate
01:25AM 66.1323 -124.5044 306° West  Level FlightAware Approximate
01:26AM 66.1685 -124.6267 306° West  Level FlightAware Approximate
01:27AM 66.2046 -124.7494 306° West  Level FlightAware Approximate
01:28AM 66.2406 -124.8724 306° West  Level FlightAware Approximate
01:29AM 66.2765 -124.9958 306° West  Level FlightAware Approximate
01:30AM 66.3123 -125.1196 306° West  Level FlightAware Approximate
01:31AM 66.3481 -125.2437 306° West  Level FlightAware Approximate
01:32AM 66.3837 -125.3681 306° West  Level FlightAware Approximate
01:33AM 66.4192 -125.4929 305° West  Level FlightAware Approximate
01:34AM 66.4546 -125.6181 305° West  Level FlightAware Approximate
01:35AM 66.4900 -125.7436 305° West  Level FlightAware Approximate
01:36AM 66.5252 -125.8695 305° West  Level FlightAware Approximate
01:37AM 66.5603 -125.9957 305° West  Level FlightAware Approximate
01:38AM 66.5953 -126.1223 305° West  Level FlightAware Approximate
01:39AM 66.6302 -126.2492 305° West  Level FlightAware Approximate
01:40AM 66.6650 -126.3765 305° West  Level FlightAware Approximate
01:41AM 66.6997 -126.5041 305° West  Level FlightAware Approximate
01:42AM 66.7344 -126.6321 304° West  Level FlightAware Approximate
01:43AM 66.7689 -126.7605 304° West  Level FlightAware Approximate
01:44AM 66.8033 -126.8893 304° West  Level FlightAware Approximate
01:45AM 66.8375 -127.0183 304° West  Level FlightAware Approximate
01:46AM 66.8717 -127.1478 304° West  Level FlightAware Approximate
01:47AM 66.9058 -127.2776 304° West  Level FlightAware Approximate
01:48AM 66.9398 -127.4078 304° West  Level FlightAware Approximate
01:49AM 66.9736 -127.5383 304° West  Level FlightAware Approximate
01:50AM 67.0074 -127.6692 303° West  Level FlightAware Approximate
01:51AM 67.0411 -127.8005 303° West  Level FlightAware Approximate
01:52AM 67.0746 -127.9321 303° West  Level FlightAware Approximate
01:53AM 67.1080 -128.0641 303° West  Level FlightAware Approximate
01:54AM 67.1414 -128.1965 303° West  Level FlightAware Approximate
01:55AM 67.1746 -128.3292 303° West  Level FlightAware Approximate
01:56AM 67.2077 -128.4623 303° West  Level FlightAware Approximate
01:57AM 67.2407 -128.5958 303° West  Level FlightAware Approximate
01:58AM 67.2736 -128.7296 303° West  Level FlightAware Approximate
01:59AM 67.3063 -128.8638 302° West  Level FlightAware Approximate
02:00AM 67.3390 -128.9983 302° West  Level FlightAware Approximate
02:01AM 67.3715 -129.1333 302° West  Level FlightAware Approximate
02:02AM 67.4040 -129.2686 302° West  Level FlightAware Approximate
02:03AM 67.4363 -129.4042 302° West  Level FlightAware Approximate
02:04AM 67.4685 -129.5402 302° West  Level FlightAware Approximate
02:05AM 67.5006 -129.6766 302° West  Level FlightAware Approximate
02:06AM 67.5326 -129.8134 302° West  Level FlightAware Approximate
02:07AM 67.5632 -129.9532 300° West  Level FlightAware Approximate
02:08AM 67.5935 -130.0928 300° West  Level FlightAware Approximate
02:09AM 67.6237 -130.2328 300° West  Level FlightAware Approximate
02:10AM 67.6538 -130.3732 299° West  Level FlightAware Approximate
02:11AM 67.6841 -130.5136 300° West  Level FlightAware Approximate
02:12AM 67.7143 -130.6540 300° West  Level FlightAware Approximate
02:13AM 67.7445 -130.7948 300° West  Level FlightAware Approximate
02:14AM 67.7746 -130.9360 299° West  Level FlightAware Approximate
02:15AM 67.8045 -131.0775 299° West  Level FlightAware Approximate
02:16AM 67.8343 -131.2194 299° West  Level FlightAware Approximate
02:17AM 67.8640 -131.3617 299° West  Level FlightAware Approximate
02:18AM 67.8935 -131.5043 299° West  Level FlightAware Approximate
02:19AM 67.9233 -131.6468 300° West  Level FlightAware Approximate
02:20AM 67.9541 -131.7879 300° West  Level FlightAware Approximate
02:21AM 67.9848 -131.9294 300° West  Level FlightAware Approximate
02:22AM 68.0146 -132.0723 298° West  Level FlightAware Approximate
02:23AM 68.0436 -132.2167 298° West  Level FlightAware Approximate
02:24AM 68.0725 -132.3614 298° West  Level FlightAware Approximate
02:25AM 68.1013 -132.5063 299° West  Level FlightAware Approximate
02:26AM 68.1314 -132.6497 299° West  Level FlightAware Approximate
02:27AM 68.1613 -132.7935 299° West  Level FlightAware Approximate
02:28AM 68.1940 -132.9320 312° West  Level FlightAware Approximate
02:29AM 68.2150 -133.0850 287° West  Level FlightAware Approximate
02:30AM 68.2477 -133.2240 304° West  Level FlightAware Approximate
02:31AM 68.2797 -133.3650 298° West  Level FlightAware Approximate
02:32AM 68.3000 -133.4667 298° West  Level FlightAware Approximate
02:33AM 68.3042 -133.4828 298° West  Level Estimated
02:34AM 68.3042 -133.4828 298° West  Level Estimated
02:35AM 68.3042 -133.4828 298° West  Level Estimated
02:36AM 68.3042 -133.4828 298° West  Level Estimated
02:37AM 68.3042 -133.4828 298° West  Level Estimated